createdAt,value
2023-05-19T00:01:17.761Z,70.73
2023-05-19T00:03:57.832Z,70.81
2023-05-19T00:06:26.942Z,70.81
2023-05-19T00:09:00.365Z,71.53
2023-05-19T00:11:28.910Z,71.79
2023-05-19T00:13:57.658Z,72.12
2023-05-19T00:16:25.643Z,71.78
2023-05-19T00:18:53.360Z,72.17
2023-05-19T00:21:20.927Z,72.50
2023-05-19T00:23:47.486Z,72.23
2023-05-19T00:26:14.095Z,72.63
2023-05-19T00:28:40.743Z,72.82
2023-05-19T00:31:07.364Z,72.72
2023-05-19T00:33:34.253Z,73.05
2023-05-19T00:36:03.461Z,72.65
2023-05-19T00:38:34.881Z,73.07
2023-05-19T00:41:02.528Z,73.07
2023-05-19T00:43:32.630Z,72.93
2023-05-19T00:45:59.256Z,73.07
2023-05-19T00:48:26.575Z,73.33
2023-05-19T00:50:55.213Z,73.58
2023-05-19T00:53:23.286Z,73.98
2023-05-19T00:55:50.611Z,73.94
2023-05-19T00:58:18.543Z,73.93
2023-05-19T01:00:45.793Z,73.98
2023-05-19T01:03:12.632Z,73.95
2023-05-19T01:05:41.753Z,74.07
2023-05-19T01:08:09.142Z,74.12
2023-05-19T01:10:36.014Z,74.13
2023-05-19T01:13:07.074Z,74.46
2023-05-19T01:15:42.177Z,74.34
2023-05-19T01:18:14.296Z,73.96
2023-05-19T01:20:55.312Z,74.28
2023-05-19T01:23:36.757Z,74.70
2023-05-19T01:26:16.193Z,74.35
2023-05-19T01:28:54.957Z,74.67
2023-05-19T01:31:24.037Z,74.48
2023-05-19T01:33:53.752Z,74.36
2023-05-19T01:36:22.329Z,74.78
2023-05-19T01:38:52.094Z,74.55
2023-05-19T01:41:22.505Z,74.33
2023-05-19T01:43:50.761Z,74.81
2023-05-19T01:46:17.817Z,74.65
2023-05-19T01:48:45.743Z,74.41
2023-05-19T01:51:12.362Z,74.68
2023-05-19T01:53:39.058Z,74.39
2023-05-19T01:56:06.624Z,74.23
2023-05-19T01:58:47.526Z,74.23
2023-05-19T02:01:30.815Z,74.54
2023-05-19T02:04:09.687Z,74.54
2023-05-19T02:07:09.673Z,74.51
2023-05-19T02:09:54.815Z,74.47
2023-05-19T02:12:29.120Z,74.23
2023-05-19T02:15:06.888Z,74.15
2023-05-19T02:17:36.696Z,74.19
2023-05-19T02:20:05.341Z,74.31
2023-05-19T02:22:31.974Z,74.08
2023-05-19T02:24:58.838Z,73.87
2023-05-19T02:27:26.378Z,73.94
2023-05-19T02:29:53.421Z,73.93
2023-05-19T02:32:20.965Z,73.92
2023-05-19T02:34:47.750Z,73.88
2023-05-19T02:37:17.815Z,73.89
2023-05-19T02:39:45.075Z,73.45
2023-05-19T02:42:12.555Z,73.64
2023-05-19T02:44:39.261Z,73.81
2023-05-19T02:47:05.952Z,73.75
2023-05-19T02:49:36.215Z,73.77
2023-05-19T02:52:03.904Z,73.32
2023-05-19T02:54:31.669Z,73.32
2023-05-19T02:57:01.281Z,73.30
2023-05-19T02:59:28.014Z,73.67
2023-05-19T03:01:56.782Z,74.13
2023-05-19T03:04:23.448Z,74.26
2023-05-19T03:06:50.334Z,74.09
2023-05-19T03:09:17.036Z,74.01
2023-05-19T03:11:43.679Z,74.41
2023-05-19T03:14:11.650Z,74.50
2023-05-19T03:16:42.289Z,74.48
2023-05-19T03:19:09.881Z,74.32
2023-05-19T03:21:39.449Z,74.25
2023-05-19T03:24:06.768Z,74.53
2023-05-19T03:26:33.496Z,73.62
2023-05-19T03:29:00.178Z,73.98
2023-05-19T03:31:26.995Z,73.72
2023-05-19T03:33:53.767Z,74.05
2023-05-19T03:36:22.147Z,73.46
2023-05-19T03:38:48.846Z,73.89
2023-05-19T03:41:15.565Z,73.26
2023-05-19T03:43:42.200Z,73.49
2023-05-19T03:46:08.835Z,73.23
2023-05-19T03:48:38.351Z,73.82
2023-05-19T03:51:05.054Z,73.88
2023-05-19T03:53:31.686Z,73.38
2023-05-19T03:55:59.544Z,73.50
2023-05-19T03:58:26.843Z,73.15
2023-05-19T04:00:53.531Z,72.79
2023-05-19T04:03:20.307Z,72.54
2023-05-19T04:05:47.065Z,72.01
2023-05-19T04:08:13.738Z,72.14
2023-05-19T04:10:40.353Z,71.97
2023-05-19T04:13:09.961Z,71.72
2023-05-19T04:15:36.659Z,71.98
2023-05-19T04:18:03.430Z,71.86
2023-05-19T04:20:30.223Z,71.86
2023-05-19T04:22:56.947Z,72.01
2023-05-19T04:25:25.376Z,72.04
2023-05-19T04:27:53.074Z,71.48
2023-05-19T04:30:22.597Z,71.47
2023-05-19T04:32:53.543Z,71.30
2023-05-19T04:35:20.788Z,71.36
2023-05-19T04:37:47.395Z,71.22
2023-05-19T04:40:17.465Z,71.31
2023-05-19T04:42:46.147Z,71.00
2023-05-19T04:45:14.130Z,71.20
2023-05-19T04:47:41.976Z,71.20
2023-05-19T04:50:10.440Z,71.32
2023-05-19T04:52:37.765Z,71.30
2023-05-19T04:55:04.788Z,71.26
2023-05-19T04:57:31.439Z,70.98
2023-05-19T05:00:00.301Z,71.18
2023-05-19T05:02:29.932Z,70.95
2023-05-19T05:04:57.855Z,70.86
2023-05-19T05:07:24.692Z,71.06
2023-05-19T05:09:51.537Z,71.19
2023-05-19T05:12:19.190Z,70.99
2023-05-19T05:14:46.125Z,70.93
2023-05-19T05:17:13.797Z,70.51
2023-05-19T05:19:41.098Z,70.46
2023-05-19T05:22:10.743Z,70.13
2023-05-19T05:24:39.745Z,70.51
2023-05-19T05:27:08.280Z,70.67
2023-05-19T05:29:38.098Z,70.67
2023-05-19T05:32:10.439Z,71.04
2023-05-19T05:34:38.181Z,70.66
2023-05-19T05:37:04.944Z,70.99
2023-05-19T05:39:32.007Z,70.79
2023-05-19T05:41:58.721Z,70.97
2023-05-19T05:44:25.430Z,70.80
2023-05-19T05:46:55.260Z,70.65
2023-05-19T05:49:23.235Z,70.39
2023-05-19T05:52:01.821Z,70.75
2023-05-19T05:54:35.306Z,70.55
2023-05-19T05:57:02.645Z,70.68
2023-05-19T05:59:29.307Z,70.72
2023-05-19T06:01:56.014Z,70.71
2023-05-19T06:04:22.717Z,70.54
2023-05-19T06:06:49.387Z,70.67
2023-05-19T06:09:16.399Z,70.87
2023-05-19T06:11:43.042Z,71.04
2023-05-19T06:14:10.369Z,70.83
2023-05-19T06:16:37.062Z,70.62
2023-05-19T06:19:03.806Z,70.49
2023-05-19T06:21:30.944Z,70.50
2023-05-19T06:23:57.642Z,70.34
2023-05-19T06:26:24.402Z,70.28
2023-05-19T06:28:51.408Z,70.00
2023-05-19T06:31:18.216Z,69.60
2023-05-19T06:33:44.821Z,69.42
2023-05-19T06:36:14.080Z,69.89
2023-05-19T06:38:40.749Z,69.91
2023-05-19T06:41:07.554Z,69.82
2023-05-19T06:43:34.173Z,69.71
2023-05-19T06:46:00.802Z,69.42
2023-05-19T06:48:27.494Z,69.45
2023-05-19T06:50:54.277Z,69.51
2023-05-19T06:53:21.473Z,69.20
2023-05-19T06:55:59.245Z,69.29
2023-05-19T06:58:27.273Z,69.42
2023-05-19T07:00:53.948Z,69.41
2023-05-19T07:03:20.663Z,69.26
2023-05-19T07:05:47.629Z,69.41
2023-05-19T07:08:14.253Z,69.61
2023-05-19T07:10:43.825Z,69.47
2023-05-19T07:13:10.485Z,69.41
2023-05-19T07:15:37.124Z,69.56
2023-05-19T07:18:03.964Z,69.32
2023-05-19T07:20:30.992Z,69.36
2023-05-19T07:22:57.956Z,69.28
2023-05-19T07:25:26.166Z,69.14
2023-05-19T07:27:53.016Z,69.08
2023-05-19T07:30:19.635Z,68.85
2023-05-19T07:32:46.295Z,68.99
2023-05-19T07:35:13.062Z,68.71
2023-05-19T07:37:39.823Z,68.63
2023-05-19T07:40:08.033Z,68.65
2023-05-19T07:42:34.802Z,69.06
2023-05-19T07:45:03.232Z,68.72
2023-05-19T07:47:30.735Z,68.42
2023-05-19T07:49:57.448Z,68.44
2023-05-19T07:52:24.075Z,68.29
2023-05-19T07:54:50.697Z,68.59
2023-05-19T07:57:19.032Z,68.59
2023-05-19T07:59:45.714Z,68.41
2023-05-19T08:02:15.574Z,68.35
2023-05-19T08:04:42.788Z,68.42
2023-05-19T08:07:09.435Z,68.42
2023-05-19T08:09:39.148Z,68.60
2023-05-19T08:12:06.289Z,68.17
2023-05-19T08:14:37.574Z,67.94
2023-05-19T08:17:04.255Z,68.21
2023-05-19T08:19:30.935Z,67.85
2023-05-19T08:21:58.297Z,67.77
2023-05-19T08:24:24.980Z,67.79
2023-05-19T08:26:51.704Z,67.35
2023-05-19T08:29:18.360Z,67.44
2023-05-19T08:31:45.004Z,67.36
2023-05-19T08:34:11.874Z,67.26
2023-05-19T08:36:39.057Z,67.07
2023-05-19T08:39:06.043Z,66.83
2023-05-19T08:41:33.087Z,66.54
2023-05-19T08:44:02.091Z,66.82
2023-05-19T08:46:29.371Z,67.11
2023-05-19T08:49:02.149Z,67.32
2023-05-19T08:51:50.972Z,67.53
2023-05-19T08:54:18.695Z,67.24
2023-05-19T08:56:45.746Z,67.33
2023-05-19T08:59:14.612Z,67.22
2023-05-19T09:01:48.601Z,67.12
2023-05-19T09:04:17.074Z,66.60
2023-05-19T09:06:45.265Z,66.43
2023-05-19T09:09:13.616Z,66.34
2023-05-19T09:11:40.214Z,65.88
2023-05-19T09:14:09.447Z,65.85
2023-05-19T09:16:36.384Z,65.60
2023-05-19T09:19:03.303Z,65.51
2023-05-19T09:21:33.662Z,65.70
2023-05-19T09:24:08.404Z,65.29
2023-05-19T09:26:42.737Z,64.81
2023-05-19T09:29:13.940Z,64.33
2023-05-19T09:31:50.635Z,64.53
2023-05-19T09:34:18.462Z,64.54
2023-05-19T09:36:46.933Z,63.91
2023-05-19T09:39:14.932Z,64.21
2023-05-19T09:41:42.299Z,62.69
2023-05-19T09:44:23.340Z,63.08
2023-05-19T09:46:50.944Z,63.84
2023-05-19T09:49:25.397Z,63.24
2023-05-19T09:51:58.864Z,62.46
2023-05-19T09:54:27.570Z,61.69
2023-05-19T09:57:01.013Z,62.33
2023-05-19T09:59:32.034Z,61.82
2023-05-19T10:02:01.040Z,63.03
2023-05-19T10:04:29.780Z,63.26
2023-05-19T10:07:01.184Z,63.42
2023-05-19T10:09:29.732Z,63.21
2023-05-19T10:12:01.858Z,63.04
2023-05-19T10:14:29.762Z,62.20
2023-05-19T10:16:59.855Z,62.46
2023-05-19T10:19:28.296Z,62.15
2023-05-19T10:21:56.314Z,62.50
2023-05-19T10:24:26.600Z,61.38
2023-05-19T10:27:03.607Z,60.61
2023-05-19T10:29:35.657Z,61.57
2023-05-19T10:32:10.614Z,62.11
2023-05-19T10:35:02.992Z,60.75
2023-05-19T10:37:53.775Z,58.16
2023-05-19T10:41:10.426Z,56.93
2023-05-19T10:44:10.266Z,58.03
2023-05-19T10:46:37.865Z,58.84
2023-05-19T10:49:04.562Z,57.68
2023-05-19T10:51:32.325Z,58.20
2023-05-19T10:54:10.448Z,58.00
2023-05-19T10:56:42.439Z,57.96
2023-05-19T10:59:35.656Z,58.00
2023-05-19T11:02:08.919Z,59.14
2023-05-19T11:04:53.641Z,58.44
2023-05-19T11:07:22.457Z,59.33
2023-05-19T11:09:53.279Z,57.48
2023-05-19T11:12:25.044Z,55.98
2023-05-19T11:14:55.952Z,56.87
2023-05-19T11:17:27.483Z,57.83
2023-05-19T11:19:55.934Z,56.29
2023-05-19T11:22:27.249Z,56.05
2023-05-19T11:24:59.909Z,56.85
2023-05-19T11:27:31.108Z,57.10
2023-05-19T11:29:59.636Z,57.43
2023-05-19T11:32:31.175Z,58.23
2023-05-19T11:34:58.259Z,56.61
2023-05-19T11:37:25.372Z,57.28
2023-05-19T11:39:53.065Z,57.36
2023-05-19T11:42:23.024Z,54.22
2023-05-19T11:44:55.872Z,52.19
2023-05-19T11:47:22.570Z,53.35
2023-05-19T11:49:57.758Z,52.99
2023-05-19T11:52:26.005Z,52.01
2023-05-19T11:54:52.716Z,55.18
2023-05-19T11:57:22.646Z,51.30
2023-05-19T11:59:53.337Z,52.45
2023-05-19T12:02:27.702Z,51.41
2023-05-19T12:04:55.105Z,52.33
2023-05-19T12:07:26.065Z,53.00
2023-05-19T12:09:53.420Z,53.87
2023-05-19T12:12:21.359Z,53.57
2023-05-19T12:14:50.176Z,53.38
2023-05-19T12:17:21.508Z,52.76
2023-05-19T12:19:49.254Z,52.54
2023-05-19T12:22:17.313Z,51.84
2023-05-19T12:24:45.209Z,54.28
2023-05-19T12:27:13.737Z,53.64
2023-05-19T12:29:40.680Z,54.50
2023-05-19T12:32:08.321Z,52.24
2023-05-19T12:34:38.994Z,53.09
2023-05-19T12:37:06.470Z,53.95
2023-05-19T12:39:34.013Z,54.16
2023-05-19T12:42:07.939Z,53.34
2023-05-19T12:44:54.831Z,52.69
2023-05-19T12:47:22.371Z,54.83
2023-05-19T12:49:55.972Z,53.04
2023-05-19T12:52:23.702Z,50.79
2023-05-19T12:54:52.518Z,50.70
2023-05-19T12:57:21.120Z,48.89
2023-05-19T12:59:49.393Z,51.23
2023-05-19T13:02:16.576Z,50.83
2023-05-19T13:04:43.339Z,53.07
2023-05-19T13:07:09.968Z,52.48
2023-05-19T13:09:36.650Z,51.18
2023-05-19T13:12:04.788Z,51.42
2023-05-19T13:14:31.450Z,51.97
2023-05-19T13:16:58.080Z,52.31
2023-05-19T13:19:26.026Z,51.59
2023-05-19T13:21:53.100Z,51.72
2023-05-19T13:24:22.007Z,49.67
2023-05-19T13:26:48.927Z,50.13
2023-05-19T13:29:15.609Z,50.05
2023-05-19T13:31:42.414Z,50.31
2023-05-19T13:34:09.209Z,49.69
2023-05-19T13:36:36.641Z,50.38
2023-05-19T13:39:03.604Z,48.19
2023-05-19T13:41:30.346Z,48.64
2023-05-19T13:43:59.235Z,48.40
2023-05-19T13:46:36.723Z,48.06
2023-05-19T13:49:13.063Z,47.45
2023-05-19T13:51:45.026Z,47.10
2023-05-19T13:54:11.851Z,47.08
2023-05-19T13:56:38.771Z,46.97
2023-05-19T13:59:05.402Z,46.87
2023-05-19T14:01:35.742Z,43.89
2023-05-19T14:04:02.791Z,45.56
2023-05-19T14:06:29.622Z,46.49
2023-05-19T14:08:59.199Z,46.07
2023-05-19T14:11:26.330Z,45.48
2023-05-19T14:13:53.271Z,45.10
2023-05-19T14:16:23.219Z,45.74
2023-05-19T14:18:50.014Z,46.51
2023-05-19T14:21:16.669Z,47.03
2023-05-19T14:23:48.627Z,46.34
2023-05-19T14:26:16.065Z,45.54
2023-05-19T14:28:42.774Z,44.83
2023-05-19T14:31:12.877Z,45.15
2023-05-19T14:33:40.810Z,45.72
2023-05-19T14:36:08.474Z,45.65
2023-05-19T14:38:35.429Z,45.51
2023-05-19T14:41:02.367Z,46.50
2023-05-19T14:43:29.115Z,47.17
2023-05-19T14:45:56.849Z,46.87
2023-05-19T14:48:23.546Z,45.65
2023-05-19T14:50:50.370Z,45.36
2023-05-19T14:53:17.084Z,45.69
2023-05-19T14:55:46.494Z,45.38
2023-05-19T14:58:27.686Z,45.96
2023-05-19T15:00:58.072Z,46.45
2023-05-19T15:03:25.072Z,45.48
2023-05-19T15:05:51.871Z,45.63
2023-05-19T15:08:18.582Z,45.47
2023-05-19T15:10:49.364Z,44.79
2023-05-19T15:13:17.156Z,44.52
2023-05-19T15:15:43.797Z,45.05
2023-05-19T15:18:11.510Z,45.29
2023-05-19T15:20:38.138Z,45.82
2023-05-19T15:23:04.796Z,45.67
2023-05-19T15:25:31.528Z,46.06
2023-05-19T15:27:58.194Z,45.60
2023-05-19T15:30:25.944Z,45.81
2023-05-19T15:32:52.565Z,46.40
2023-05-19T15:35:19.264Z,45.97
2023-05-19T15:37:45.912Z,46.22
2023-05-19T15:40:12.936Z,46.16
2023-05-19T15:42:39.554Z,45.58
2023-05-19T15:45:08.208Z,45.21
2023-05-19T15:47:34.946Z,45.22
2023-05-19T15:50:01.612Z,45.64
2023-05-19T15:52:29.275Z,45.45
2023-05-19T15:54:59.059Z,45.70
2023-05-19T15:57:25.963Z,45.58
2023-05-19T15:59:52.642Z,45.49
2023-05-19T16:02:19.658Z,45.06
2023-05-19T16:04:46.446Z,45.46
2023-05-19T16:07:13.094Z,45.87
2023-05-19T16:09:39.741Z,45.25
2023-05-19T16:12:06.793Z,44.76
2023-05-19T16:14:36.512Z,44.39
2023-05-19T16:17:07.598Z,44.56
2023-05-19T16:19:34.369Z,44.03
2023-05-19T16:22:01.098Z,43.87
2023-05-19T16:24:28.459Z,43.30
2023-05-19T16:26:55.593Z,43.22
2023-05-19T16:29:22.239Z,43.45
2023-05-19T16:31:48.849Z,43.14
2023-05-19T16:34:15.653Z,43.28
2023-05-19T16:36:42.342Z,43.15
2023-05-19T16:39:09.037Z,43.17
2023-05-19T16:41:35.871Z,43.35
2023-05-19T16:44:02.583Z,43.07
2023-05-19T16:46:32.437Z,43.25
2023-05-19T16:48:59.069Z,43.34
2023-05-19T16:51:25.825Z,43.69
2023-05-19T16:53:52.466Z,44.11
2023-05-19T16:56:19.248Z,44.14
2023-05-19T16:58:46.465Z,44.62
2023-05-19T17:01:13.145Z,44.69
2023-05-19T17:03:39.845Z,45.46
2023-05-19T17:06:06.608Z,45.32
2023-05-19T17:08:33.223Z,45.24
2023-05-19T17:10:59.903Z,45.12
2023-05-19T17:13:28.354Z,45.36
2023-05-19T17:15:55.019Z,45.53
2023-05-19T17:18:21.706Z,45.84
2023-05-19T17:20:48.439Z,46.45
2023-05-19T17:23:15.098Z,46.22
2023-05-19T17:25:41.959Z,46.73
2023-05-19T17:28:08.741Z,46.96
2023-05-19T17:30:35.802Z,47.95
2023-05-19T17:33:02.537Z,48.03
2023-05-19T17:35:29.254Z,48.83
2023-05-19T17:37:56.034Z,49.28
2023-05-19T17:40:22.651Z,49.81
2023-05-19T17:42:49.337Z,49.92
2023-05-19T17:45:16.142Z,50.66
2023-05-19T17:47:42.871Z,51.57
2023-05-19T17:50:09.937Z,51.59
2023-05-19T17:52:38.411Z,52.48
2023-05-19T17:55:05.886Z,52.83
2023-05-19T17:57:34.133Z,53.50
2023-05-19T18:00:01.366Z,53.72
2023-05-19T18:02:28.180Z,54.02
2023-05-19T18:04:55.172Z,54.35
2023-05-19T18:07:23.453Z,54.99
2023-05-19T18:09:51.860Z,55.43
2023-05-19T18:12:18.526Z,55.70
2023-05-19T18:14:48.226Z,56.06
2023-05-19T18:17:14.851Z,56.31
2023-05-19T18:19:44.445Z,56.82
2023-05-19T18:22:12.986Z,56.65
2023-05-19T18:24:39.650Z,56.92
2023-05-19T18:27:06.301Z,57.16
2023-05-19T18:29:33.996Z,57.85
2023-05-19T18:32:01.394Z,58.59
2023-05-19T18:34:30.183Z,59.15
2023-05-19T18:36:56.785Z,59.69
2023-05-19T18:39:23.495Z,60.34
2023-05-19T18:41:50.845Z,60.52
2023-05-19T18:44:17.546Z,60.78
2023-05-19T18:46:47.256Z,61.03
2023-05-19T18:49:13.968Z,61.58
2023-05-19T18:51:42.087Z,61.71
2023-05-19T18:54:08.816Z,61.83
2023-05-19T18:56:35.712Z,61.50
2023-05-19T18:59:02.450Z,62.22
2023-05-19T19:01:29.192Z,62.07
2023-05-19T19:03:55.935Z,62.58
2023-05-19T19:06:23.442Z,62.72
2023-05-19T19:08:50.323Z,63.50
2023-05-19T19:11:17.015Z,63.25
2023-05-19T19:13:43.856Z,62.49
2023-05-19T19:16:10.950Z,63.39
2023-05-19T19:18:37.698Z,62.88
2023-05-19T19:21:06.048Z,63.10
2023-05-19T19:23:33.220Z,63.47
2023-05-19T19:26:00.296Z,63.08
2023-05-19T19:28:27.041Z,62.70
2023-05-19T19:30:53.714Z,62.69
2023-05-19T19:33:20.574Z,62.39
2023-05-19T19:35:47.240Z,62.42
2023-05-19T19:38:14.161Z,62.78
2023-05-19T19:40:40.878Z,62.69
2023-05-19T19:43:07.558Z,63.15
2023-05-19T19:45:34.901Z,63.08
2023-05-19T19:48:01.934Z,63.69
2023-05-19T19:50:28.568Z,63.55
2023-05-19T19:52:55.170Z,63.64
2023-05-19T19:55:21.914Z,63.85
2023-05-19T19:57:49.572Z,63.77
2023-05-19T20:00:16.666Z,64.34
2023-05-19T20:03:02.859Z,64.72
2023-05-19T20:05:30.043Z,65.09
2023-05-19T20:07:56.736Z,65.28
2023-05-19T20:10:23.378Z,65.35
2023-05-19T20:12:50.700Z,65.86
2023-05-19T20:15:17.585Z,66.38
2023-05-19T20:17:44.334Z,66.40
2023-05-19T20:20:12.322Z,66.56
2023-05-19T20:22:41.158Z,66.42
2023-05-19T20:25:08.189Z,66.17
2023-05-19T20:27:37.715Z,66.81
2023-05-19T20:30:04.919Z,66.98
2023-05-19T20:32:31.664Z,66.97
2023-05-19T20:34:58.501Z,67.85
2023-05-19T20:37:25.135Z,67.61
2023-05-19T20:39:51.881Z,67.75
2023-05-19T20:42:18.482Z,67.90
2023-05-19T20:44:45.144Z,67.95
2023-05-19T20:47:11.859Z,68.41
2023-05-19T20:49:38.567Z,68.44
2023-05-19T20:52:05.276Z,68.18
2023-05-19T20:54:31.928Z,69.00
2023-05-19T20:56:58.557Z,68.36
2023-05-19T20:59:25.536Z,68.37
2023-05-19T21:01:52.120Z,69.19
2023-05-19T21:04:18.970Z,69.65
2023-05-19T21:06:45.887Z,69.46
2023-05-19T21:09:12.588Z,69.75
2023-05-19T21:11:39.191Z,70.27
2023-05-19T21:14:08.095Z,70.29
2023-05-19T21:16:38.838Z,70.92
2023-05-19T21:19:06.938Z,70.76
2023-05-19T21:21:34.710Z,70.28
2023-05-19T21:24:01.977Z,71.02
2023-05-19T21:26:28.585Z,71.05
2023-05-19T21:28:55.257Z,71.15
2023-05-19T21:31:21.938Z,71.41
2023-05-19T21:33:48.721Z,71.71
2023-05-19T21:36:16.546Z,72.17
2023-05-19T21:38:43.176Z,71.75
2023-05-19T21:41:09.864Z,71.79
2023-05-19T21:43:36.498Z,72.59
2023-05-19T21:46:03.262Z,72.36
2023-05-19T21:48:29.876Z,72.53
2023-05-19T21:50:57.281Z,72.47
2023-05-19T21:53:24.760Z,72.26
2023-05-19T21:55:51.629Z,71.97
2023-05-19T21:58:18.569Z,71.82
2023-05-19T22:00:52.686Z,72.01
2023-05-19T22:03:19.742Z,72.26
2023-05-19T22:05:50.843Z,72.01
2023-05-19T22:08:18.509Z,72.09
2023-05-19T22:10:45.420Z,71.94
2023-05-19T22:13:12.707Z,71.88
2023-05-19T22:15:39.623Z,71.15
2023-05-19T22:18:07.016Z,71.86
2023-05-19T22:20:34.283Z,71.93
2023-05-19T22:23:04.077Z,71.33
2023-05-19T22:25:31.236Z,71.54
2023-05-19T22:27:57.896Z,71.80
2023-05-19T22:30:24.718Z,71.63
2023-05-19T22:32:51.395Z,71.69
2023-05-19T22:35:18.916Z,71.77
2023-05-19T22:37:45.504Z,72.00
2023-05-19T22:40:12.342Z,72.03
2023-05-19T22:42:39.005Z,72.30
2023-05-19T22:45:06.410Z,72.17
2023-05-19T22:47:33.084Z,72.25
2023-05-19T22:49:59.740Z,72.07
2023-05-19T22:52:26.395Z,71.98
2023-05-19T22:54:53.099Z,71.65
2023-05-19T22:57:19.722Z,71.79
2023-05-19T22:59:48.226Z,71.82
2023-05-19T23:02:14.862Z,71.86
2023-05-19T23:04:41.553Z,71.61
2023-05-19T23:07:08.212Z,71.63
2023-05-19T23:09:34.933Z,71.95
2023-05-19T23:12:01.585Z,71.85
2023-05-19T23:14:28.491Z,72.10
2023-05-19T23:16:55.208Z,71.83
2023-05-19T23:19:22.335Z,71.78
2023-05-19T23:21:49.330Z,71.59
2023-05-19T23:24:16.305Z,71.85
2023-05-19T23:26:45.965Z,71.74
2023-05-19T23:29:13.666Z,71.99
2023-05-19T23:31:41.147Z,72.09
2023-05-19T23:34:08.928Z,71.99
2023-05-19T23:36:36.517Z,72.13
2023-05-19T23:39:03.410Z,71.79
2023-05-19T23:41:35.984Z,71.92
2023-05-19T23:44:02.645Z,71.93
2023-05-19T23:46:29.496Z,72.01
2023-05-19T23:48:56.284Z,72.48
2023-05-19T23:51:22.955Z,72.33
2023-05-19T23:53:49.624Z,72.12
2023-05-19T23:56:18.941Z,72.16
2023-05-19T23:58:45.766Z,72.15
